This is the latest recevied weather packets stored in our database for station/object JQ1YUX-13. If no packets are shown the sender has not sent any weather packets the latest 10 day(s).
| Time | Temp. | Humidity | Pressure | Rain* | Wind** | Luminosity | Snow |
|---|---|---|---|---|---|---|---|
| 1777279385 | 16.67° C | 90% | 1006.2 hPa | 1.52 mm | - | - | - |
| 1777278486 | 17.22° C | 90% | 1006 hPa | 1.78 mm | - | - | - |
| 1777277584 | 17.22° C | 89% | 1005.7 hPa | 1.52 mm | - | - | - |
| 1777276685 | 17.22° C | 89% | 1005.6 hPa | 1.27 mm | - | - | - |
| 1777275785 | 17.22° C | 89% | 1005.5 hPa | 1.52 mm | - | - | - |
| 1777274885 | 17.78° C | 89% | 1005.2 hPa | 1.78 mm | - | - | - |
| 1777273985 | 17.78° C | 89% | 1005.1 hPa | 2.03 mm | - | - | - |
| 1777273084 | 17.78° C | 88% | 1004.8 hPa | 1.78 mm | - | - | - |
| 1777272185 | 18.33° C | 87% | 1004.7 hPa | 1.02 mm | - | - | - |
| 1777271285 | 18.89° C | 84% | 1004.3 hPa | 0.51 mm | - | - | - |
| 1777270386 | 20.56° C | 79% | 1003.9 hPa | 0 mm | - | - | - |
| 1777269485 | 20.56° C | 77% | 1003.5 hPa | 0 mm | - | - | - |
| 1777268585 | 20.56° C | 77% | 1003.4 hPa | 0 mm | - | - | - |
| 1777267684 | 20.56° C | 76% | 1003.4 hPa | 0 mm | - | - | - |
| 1777266785 | 21.11° C | 76% | 1003.3 hPa | 0 mm | - | - | - |
| 1777265885 | 21.11° C | 77% | 1003.2 hPa | 0 mm | - | - | - |
| 1777264986 | 21.11° C | 77% | 1003.1 hPa | 0 mm | - | - | - |
| 1777264084 | 21.11° C | 79% | 1003.1 hPa | 0 mm | - | - | - |
| 1777263184 | 20.56° C | 80% | 1003 hPa | 0 mm | - | - | - |
| 1777262285 | 20.56° C | 80% | 1003 hPa | 0 mm | - | - | - |
| 1777261385 | 20° C | 82% | 1003.1 hPa | 0 mm | - | - | - |
| 1777260485 | 19.44° C | 82% | 1003.1 hPa | 0 mm | - | - | - |
| 1777259584 | 19.44° C | 85% | 1003.3 hPa | 0 mm | - | - | - |
| 1777258685 | 18.33° C | 87% | 1003.4 hPa | 0 mm | - | - | - |
| 1777257785 | 17.22° C | 90% | 1003.4 hPa | 0 mm | - | - | - |
* Rain latest hour (hover to see other rain measurements)
** Current wind speed in m/s (hover to see current wind gust speed)